Time;durP1;ratioP1;P1;durP2;ratioP2;P2;SDS_P1;SDS_P2;PMS_P1;PMS_P2;Temp;Humidity;BMP_temperature;BMP_pressure;BME280_temperature;BME280_humidity;BME280_pressure;Samples;Min_cycle;Max_cycle;Signal;HPM_P1;HPM_P2
2021/03/12 00:02:24;;;;;;;;;;;6.70;99.90;;;;;;5051091;28;19909;-76
2021/03/12 00:04:49;;;;;;;0.10;0.10;;;6.60;99.90;;;;;;5050915;28;19995;-76
2021/03/12 00:07:15;;;;;;;;;;;6.60;99.90;;;;;;5051143;28;20036;-77
2021/03/12 00:09:40;;;;;;;;;;;6.70;99.90;;;;;;5051094;28;19963;-76
2021/03/12 00:12:07;;;;;;;;;;;6.80;99.90;;;;;;5050864;28;19906;-76
2021/03/12 00:14:32;;;;;;;;;;;6.80;99.90;;;;;;5050385;28;20079;-76
2021/03/12 00:16:58;;;;;;;;;;;6.70;99.90;;;;;;5051740;28;20283;-77
2021/03/12 00:19:23;;;;;;;;;;;6.80;99.90;;;;;;5050620;28;19905;-75
2021/03/12 00:21:49;;;;;;;;;;;6.90;99.90;;;;;;5051796;28;20047;-76
2021/03/12 00:24:15;;;;;;;;;;;7.00;99.90;;;;;;5050412;28;20046;-76
2021/03/12 00:26:40;;;;;;;;;;;7.00;99.90;;;;;;5050903;28;20625;-76
2021/03/12 00:29:05;;;;;;;;;;;7.00;99.90;;;;;;5051789;28;20008;-76
2021/03/12 00:31:31;;;;;;;;;;;7.00;99.90;;;;;;5051989;28;20395;-75
2021/03/12 00:33:56;;;;;;;;;;;7.00;99.90;;;;;;5050357;28;19905;-76
2021/03/12 00:36:22;;;;;;;;;;;7.00;99.90;;;;;;5049695;28;20032;-76
2021/03/12 00:38:47;;;;;;;;;;;7.00;99.90;;;;;;5050969;28;19940;-76
2021/03/12 00:41:13;;;;;;;;;;;6.90;99.90;;;;;;5053828;28;19916;-76
2021/03/12 00:43:38;;;;;;;;;;;6.80;99.90;;;;;;5053857;28;19905;-76
2021/03/12 00:46:05;;;;;;;;;;;6.70;99.90;;;;;;5053938;28;20441;-77
2021/03/12 00:48:31;;;;;;;;;;;6.50;99.90;;;;;;5055298;28;20011;-77
2021/03/12 00:50:57;;;;;;;0.50;0.30;;;6.50;99.90;;;;;;5054635;28;20053;-77
2021/03/12 00:53:23;;;;;;;;;;;6.40;99.90;;;;;;5056456;28;19912;-77
2021/03/12 00:55:49;;;;;;;;;;;6.40;99.90;;;;;;5054351;28;24073;-77
2021/03/12 00:58:14;;;;;;;;;;;6.30;99.90;;;;;;5055908;28;19905;-77
2021/03/12 01:00:40;;;;;;;;;;;6.20;99.90;;;;;;5054462;28;20074;-77
2021/03/12 01:03:06;;;;;;;;;;;6.20;99.90;;;;;;5054656;28;19931;-76
2021/03/12 01:05:32;;;;;;;;;;;6.20;99.90;;;;;;5054721;28;20418;-77
2021/03/12 01:07:58;;;;;;;;;;;6.20;99.90;;;;;;5052382;28;24059;-77
2021/03/12 01:10:24;;;;;;;;;;;6.20;99.90;;;;;;5052964;28;19905;-77
2021/03/12 01:12:50;;;;;;;;;;;6.20;99.90;;;;;;5052491;28;19905;-76
2021/03/12 01:15:17;;;;;;;;;;;6.30;99.90;;;;;;5052307;28;19905;-76
2021/03/12 01:17:43;;;;;;;;;;;6.30;99.90;;;;;;5052519;28;19912;-77
2021/03/12 01:20:10;;;;;;;;;;;6.30;99.90;;;;;;5053197;28;19905;-77
2021/03/12 01:22:36;;;;;;;;;;;6.30;99.90;;;;;;5053646;28;19913;-76
2021/03/12 01:25:04;;;;;;;;;;;6.30;99.90;;;;;;5052407;28;19905;-76
2021/03/12 01:27:38;;;;;;;;;;;6.40;99.90;;;;;;5052300;28;19991;-76
2021/03/12 01:30:13;;;;;;;;;;;6.30;99.90;;;;;;5052649;28;20001;-76
2021/03/12 01:32:39;;;;;;;;;;;6.40;99.90;;;;;;5053479;28;24072;-76
2021/03/12 01:35:05;;;;;;;;;;;6.30;99.90;;;;;;5053709;28;24071;-76
2021/03/12 01:37:30;;;;;;;;;;;6.40;99.90;;;;;;5052130;28;20387;-76
2021/03/12 01:39:56;;;;;;;;;;;6.50;99.90;;;;;;5053217;28;19909;-75
2021/03/12 01:42:21;;;;;;;;;;;6.60;99.90;;;;;;5053184;28;19908;-74
2021/03/12 01:44:47;;;;;;;;;;;6.70;99.90;;;;;;5053553;28;24081;-78
2021/03/12 01:47:12;;;;;;;;;;;6.70;99.90;;;;;;5053729;28;24060;-75
2021/03/12 01:49:38;;;;;;;;;;;6.80;99.90;;;;;;5052559;28;20413;-76
2021/03/12 01:52:04;;;;;;;;;;;6.80;99.90;;;;;;5051742;28;19912;-76
2021/03/12 01:54:33;;;;;;;;;;;6.80;99.90;;;;;;5051609;28;19904;-76
2021/03/12 01:56:58;;;;;;;;;;;6.80;99.90;;;;;;5053007;28;24174;-76
2021/03/12 01:59:24;;;;;;;;;;;6.70;99.90;;;;;;5051299;28;24057;-75
2021/03/12 02:01:49;;;;;;;;;;;6.70;99.90;;;;;;5052691;28;20001;-76
2021/03/12 02:04:14;;;;;;;;;;;6.60;99.90;;;;;;5051898;28;19912;-77
2021/03/12 02:06:40;;;;;;;;;;;6.60;99.90;;;;;;5053032;28;19915;-76
2021/03/12 02:09:05;;;;;;;;;;;6.50;99.90;;;;;;5051408;28;19916;-76
2021/03/12 02:11:32;;;;;;;;;;;6.40;99.90;;;;;;5051498;28;24074;-76
2021/03/12 02:14:21;;;;;;;;;;;6.50;99.90;;;;;;5051795;28;20015;-76
2021/03/12 02:16:57;;;;;;;;;;;6.50;99.90;;;;;;5047263;28;19913;-76
2021/03/12 02:19:41;;;;;;;;;;;6.40;99.90;;;;;;5054213;28;19905;-78
2021/03/12 02:22:07;;;;;;;;;;;6.30;99.90;;;;;;5053078;28;19908;-76
2021/03/12 02:24:35;;;;;;;;;;;6.30;99.90;;;;;;5052231;28;20374;-76
2021/03/12 02:27:02;;;;;;;;;;;6.40;99.90;;;;;;5051597;28;20367;-76
2021/03/12 02:29:28;;;;;;;;;;;6.40;99.90;;;;;;5052883;28;19908;-76
2021/03/12 02:31:54;;;;;;;;;;;6.40;99.90;;;;;;5052627;28;19913;-75
2021/03/12 02:34:23;;;;;;;;;;;6.40;99.90;;;;;;5050898;28;19916;-77
2021/03/12 02:36:52;;;;;;;;;;;6.30;99.90;;;;;;5051080;28;19905;-75
2021/03/12 02:39:19;;;;;;;;;;;6.40;99.90;;;;;;5051396;28;19957;-76
2021/03/12 02:41:45;;;;;;;;;;;6.40;99.90;;;;;;5057620;28;19920;-77
2021/03/12 02:44:10;;;;;;;;;;;6.30;99.90;;;;;;5061685;28;24051;-76
2021/03/12 02:46:37;;;;;;;;;;;6.30;99.90;;;;;;5066299;28;19909;-77
2021/03/12 02:49:02;;;;;;;;;;;6.30;99.90;;;;;;5062237;28;24070;-76
2021/03/12 02:51:28;;;;;;;;;;;6.30;99.90;;;;;;5051089;28;19904;-76
2021/03/12 02:53:54;;;;;;;;;;;6.30;99.90;;;;;;5052004;28;20015;-76
2021/03/12 02:56:20;;;;;;;;;;;6.30;99.90;;;;;;5050734;28;20249;-76
2021/03/12 02:58:46;;;;;;;;;;;6.30;99.90;;;;;;5050282;28;20411;-75
2021/03/12 03:01:13;;;;;;;;;;;6.20;99.90;;;;;;5051461;28;20019;-76
2021/03/12 03:03:39;;;;;;;;;;;6.20;99.90;;;;;;5051501;28;20282;-77
2021/03/12 03:06:05;;;;;;;;;;;6.10;99.90;;;;;;5050638;28;19978;-76
2021/03/12 03:08:32;;;;;;;;;;;6.10;99.90;;;;;;5051814;28;24056;-76
2021/03/12 03:10:59;;;;;;;;;;;6.10;99.90;;;;;;5050387;28;19905;-75
2021/03/12 03:13:29;;;;;;;;;;;6.10;99.90;;;;;;5050480;28;19912;-76
2021/03/12 03:15:55;;;;;;;;;;;6.10;99.90;;;;;;5051804;28;19995;-76
2021/03/12 03:18:20;;;;;;;;;;;6.00;99.90;;;;;;5051230;28;19948;-76
2021/03/12 03:20:46;;;;;;;;;;;6.00;99.90;;;;;;5050533;28;19905;-76
2021/03/12 03:23:12;;;;;;;;;;;6.10;99.90;;;;;;5051633;28;20003;-76
2021/03/12 03:25:37;;;;;;;;;;;6.10;99.90;;;;;;5051348;28;19946;-75
2021/03/12 03:28:03;;;;;;;;;;;6.20;99.90;;;;;;5049937;28;20318;-76
2021/03/12 03:30:28;;;;;;;;;;;6.30;99.90;;;;;;5049821;28;19912;-77
2021/03/12 03:32:54;;;;;;;;;;;6.40;99.90;;;;;;5052505;28;24135;-76
2021/03/12 03:35:19;;;;;;;;;;;6.50;99.90;;;;;;5058385;28;19916;-76
2021/03/12 03:37:45;;;;;;;;;;;6.50;99.90;;;;;;5058140;28;19904;-76
2021/03/12 03:40:10;;;;;;;;;;;6.50;99.90;;;;;;5050635;28;19999;-76
2021/03/12 03:42:38;;;;;;;;;;;6.50;99.90;;;;;;5049797;28;24061;-76
2021/03/12 03:45:05;;;;;;;;;;;6.50;99.90;;;;;;5049556;28;19905;-76
2021/03/12 03:47:31;;;;;;;;;;;6.50;99.90;;;;;;5052388;28;25135;-76
2021/03/12 03:49:57;;;;;;;;;;;6.50;99.90;;;;;;5049973;28;19909;-76
2021/03/12 03:52:22;;;;;;;;;;;6.50;99.90;;;;;;5051057;28;19912;-76
2021/03/12 03:54:50;;;;;;;;;;;6.40;99.90;;;;;;5051368;28;19911;-76
2021/03/12 03:57:17;;;;;;;;;;;6.30;99.90;;;;;;5051512;28;24067;-76
2021/03/12 03:59:42;;;;;;;;;;;6.30;99.90;;;;;;5051373;28;19911;-76
2021/03/12 04:02:08;;;;;;;;;;;6.40;99.90;;;;;;5050101;28;20290;-76
2021/03/12 04:04:35;;;;;;;;;;;6.30;99.90;;;;;;5050002;28;20355;-76
2021/03/12 04:07:00;;;;;;;;;;;6.20;99.90;;;;;;5050334;28;20298;-76
2021/03/12 04:09:26;;;;;;;;;;;6.00;99.90;;;;;;5051510;28;19931;-76
2021/03/12 04:11:52;;;;;;;;;;;5.90;99.90;;;;;;5051602;28;24061;-75
2021/03/12 04:14:17;;;;;;;;;;;5.90;99.90;;;;;;5052978;28;24117;-76
2021/03/12 04:16:43;;;;;;;;;;;5.90;99.90;;;;;;5054657;28;19912;-76
2021/03/12 04:19:09;;;;;;;;;;;5.90;99.90;;;;;;5054940;28;20003;-76
2021/03/12 04:21:35;;;;;;;;;;;5.80;99.90;;;;;;5055335;28;19908;-77
2021/03/12 04:24:01;;;;;;;;;;;5.80;99.90;;;;;;5054384;28;19940;-77
2021/03/12 04:26:26;;;;;;;;;;;5.70;99.90;;;;;;5053996;28;19928;-76
2021/03/12 04:28:52;;;;;;;;;;;5.70;99.90;;;;;;5055346;28;19912;-75
2021/03/12 04:31:18;;;;;;;;;;;5.70;99.90;;;;;;5053627;28;24133;-75
2021/03/12 04:33:44;;;;;;;;;;;5.70;99.90;;;;;;5054586;28;19991;-75
2021/03/12 04:36:10;;;;;;;;;;;5.70;99.90;;;;;;5054433;28;19991;-75
2021/03/12 04:38:36;;;;;;;;;;;5.70;99.90;;;;;;5054536;28;19955;-77
2021/03/12 04:41:02;;;;;;;;;;;5.80;99.90;;;;;;5054257;28;19915;-77
2021/03/12 04:43:27;;;;;;;;;;;5.80;99.90;;;;;;5054922;28;20152;-76
2021/03/12 04:45:53;;;;;;;;;;;5.90;99.90;;;;;;5053638;28;19974;-77
2021/03/12 04:48:18;;;;;;;;;;;6.00;99.90;;;;;;5053509;28;19905;-76
2021/03/12 04:50:44;;;;;;;;;;;5.90;99.90;;;;;;5053544;28;19905;-76
2021/03/12 04:53:10;;;;;;;;;;;5.80;99.90;;;;;;5054143;28;19905;-76
2021/03/12 04:55:37;;;;;;;4.00;0.75;;;;;;;;;;5053806;28;19908;-77
2021/03/12 04:58:03;;;;;;;0.20;0.20;;;5.70;99.90;;;;;;5053647;28;20399;-77
2021/03/12 05:00:31;;;;;;;1.93;0.20;;;5.50;99.90;;;;;;5055113;28;20036;-78
2021/03/12 05:02:58;;;;;;;0.20;0.20;;;5.40;99.90;;;;;;5054787;28;20286;-77
2021/03/12 05:05:24;;;;;;;3.35;0.40;;;5.40;99.90;;;;;;5054778;28;20028;-77
2021/03/12 05:07:51;;;;;;;1.08;0.40;;;5.30;99.90;;;;;;5053313;28;20404;-78
2021/03/12 05:10:17;;;;;;;2.20;0.45;;;5.30;99.90;;;;;;5053465;28;19905;-78
2021/03/12 05:12:42;;;;;;;0.73;0.73;;;5.30;99.90;;;;;;5054854;28;20039;-76
2021/03/12 05:15:09;;;;;;;1.38;0.28;;;5.40;99.90;;;;;;5054740;28;20032;-77
2021/03/12 05:17:34;;;;;;;0.85;0.38;;;5.20;99.90;;;;;;5054671;28;20021;-77
2021/03/12 05:20:00;;;;;;;0.70;0.70;;;5.20;99.90;;;;;;5053561;28;20384;-77
2021/03/12 05:22:25;;;;;;;3.15;1.20;;;5.20;99.90;;;;;;5053251;28;20029;-77
2021/03/12 05:24:51;;;;;;;1.75;0.82;;;5.20;99.90;;;;;;5053528;28;20017;-77
2021/03/12 05:27:16;;;;;;;2.67;0.80;;;5.40;99.90;;;;;;5054565;28;20029;-77
2021/03/12 05:29:42;;;;;;;1.83;0.80;;;5.50;99.90;;;;;;5053402;28;20508;-77
2021/03/12 05:32:07;;;;;;;1.15;0.40;;;5.60;99.90;;;;;;5054559;28;20438;-77
2021/03/12 05:34:34;;;;;;;3.97;1.27;;;5.70;99.90;;;;;;5053124;28;20029;-77
2021/03/12 05:37:00;;;;;;;3.20;0.22;;;5.60;99.90;;;;;;5054788;28;20070;-78
2021/03/12 05:39:25;;;;;;;1.95;0.50;;;5.70;99.90;;;;;;5053159;28;20029;-79
2021/03/12 05:41:51;;;;;;;0.28;0.25;;;5.60;99.90;;;;;;5053320;28;20039;-78
2021/03/12 05:44:18;;;;;;;1.67;0.47;;;5.70;99.90;;;;;;5052990;28;20028;-77
2021/03/12 05:46:44;;;;;;;2.95;0.52;;;5.70;99.90;;;;;;5053476;28;20025;-77
2021/03/12 05:49:10;;;;;;;0.77;0.25;;;5.70;99.90;;;;;;5055902;28;20036;-77
2021/03/12 05:51:37;;;;;;;1.20;0.20;;;5.70;99.90;;;;;;5063345;28;20155;-77
2021/03/12 05:54:04;;;;;;;0.40;0.40;;;5.80;99.90;;;;;;5065521;28;20107;-77
2021/03/12 05:56:32;;;;;;;1.42;0.98;;;5.70;99.90;;;;;;5066662;28;20032;-77
2021/03/12 05:58:58;;;;;;;0.52;0.45;;;5.70;99.90;;;;;;5053784;28;20056;-77
2021/03/12 06:01:24;;;;;;;2.95;0.60;;;5.70;99.90;;;;;;5053502;28;20032;-77
2021/03/12 06:03:50;;;;;;;3.25;1.15;;;5.80;99.90;;;;;;5052815;28;20021;-78
2021/03/12 06:06:16;;;;;;;2.17;0.20;;;5.80;99.90;;;;;;5052855;28;20048;-77
2021/03/12 06:08:41;;;;;;;3.47;0.30;;;5.90;99.90;;;;;;5053244;28;20083;-76
2021/03/12 06:11:07;;;;;;;1.98;1.20;;;5.90;99.90;;;;;;5051682;28;20202;-76
2021/03/12 06:13:52;;;;;;;5.28;0.50;;;5.80;99.90;;;;;;5051693;28;20025;-76
2021/03/12 06:16:27;;;;;;;8.27;1.45;;;5.80;99.90;;;;;;5052808;28;20489;-76
2021/03/12 06:19:29;;;;;;;1.45;0.52;;;5.80;99.90;;;;;;5051034;28;20021;-76
2021/03/12 06:21:54;;;;;;;2.03;0.60;;;5.90;99.90;;;;;;5051442;28;20135;-77
2021/03/12 06:24:32;;;;;;;3.72;0.52;;;6.00;99.90;;;;;;5048612;28;20036;-78
2021/03/12 06:26:58;;;;;;;3.67;0.60;;;6.10;99.90;;;;;;5053470;28;20052;-78
2021/03/12 06:29:36;;;;;;;2.05;0.50;;;6.20;99.90;;;;;;5053356;28;20066;-77
2021/03/12 06:32:03;;;;;;;2.72;0.68;;;6.30;99.90;;;;;;5054180;28;20025;-78
2021/03/12 06:34:30;;;;;;;1.02;0.45;;;6.50;99.90;;;;;;5053733;28;20056;-75
2021/03/12 06:36:55;;;;;;;1.85;0.50;;;6.50;99.90;;;;;;5051106;28;20021;-75
2021/03/12 06:39:30;;;;;;;1.33;0.45;;;6.60;99.90;;;;;;5052310;28;20036;-75
2021/03/12 06:41:56;;;;;;;3.00;0.30;;;6.70;99.90;;;;;;5052467;28;20032;-78
2021/03/12 06:44:25;;;;;;;0.68;0.43;;;6.60;99.90;;;;;;5052770;28;20032;-76
2021/03/12 06:46:50;;;;;;;0.60;0.10;;;6.70;99.90;;;;;;5052614;28;20025;-78
2021/03/12 06:49:16;;;;;;;0.73;0.35;;;6.60;99.90;;;;;;5050743;28;20032;-77
2021/03/12 06:51:55;;;;;;;4.88;0.75;;;6.60;99.90;;;;;;5050763;28;20032;-76
2021/03/12 06:54:21;;;;;;;2.45;0.95;;;6.50;99.90;;;;;;5038402;28;20033;-76
2021/03/12 06:56:46;;;;;;;1.85;0.38;;;6.40;99.90;;;;;;5010194;28;20038;-76
2021/03/12 06:59:13;;;;;;;1.92;0.70;;;6.40;99.90;;;;;;5011686;28;20370;-76
2021/03/12 07:01:38;;;;;;;0.95;0.35;;;6.40;99.90;;;;;;5011057;28;20033;-76
2021/03/12 07:04:15;;;;;;;1.60;0.50;;;6.50;99.90;;;;;;5009958;28;20026;-76
2021/03/12 07:06:49;;;;;;;2.90;0.50;;;6.90;99.90;;;;;;5010937;28;20054;-75
2021/03/12 07:09:15;;;;;;;3.35;0.82;;;7.00;99.90;;;;;;5010675;28;20038;-76
2021/03/12 07:11:41;;;;;;;0.60;0.35;;;7.20;99.90;;;;;;5013525;28;20056;-77
2021/03/12 07:14:07;;;;;;;1.42;0.50;;;7.30;99.90;;;;;;5012591;28;20030;-78
2021/03/12 07:16:33;;;;;;;2.10;0.20;;;7.30;99.90;;;;;;5021021;28;20087;-77
2021/03/12 07:18:59;;;;;;;2.35;0.73;;;7.30;99.90;;;;;;5022900;28;20048;-76
2021/03/12 07:21:28;;;;;;;1.60;1.05;;;7.60;99.90;;;;;;5021303;28;20362;-74
2021/03/12 07:23:58;;;;;;;1.08;0.43;;;7.60;99.90;;;;;;5020942;28;20083;-75
2021/03/12 07:26:25;;;;;;;1.67;0.37;;;7.60;99.90;;;;;;5027981;28;20030;-76
2021/03/12 07:28:53;;;;;;;;;;;7.80;99.90;;;;;;5020359;28;19910;-76
2021/03/12 07:31:18;;;;;;;;;;;8.00;99.90;;;;;;5024120;28;19952;-77
2021/03/12 07:33:51;;;;;;;;;;;8.40;99.90;;;;;;5020661;28;20524;-76
2021/03/12 07:36:17;;;;;;;;;;;;;;;;;;5025510;28;20041;-77
2021/03/12 07:38:42;;;;;;;;;;;;;;;;;;5030915;28;20008;-78
2021/03/12 07:41:08;;;;;;;;;;;;;;;;;;5027630;28;20003;-76
2021/03/12 07:43:34;;;;;;;;;;;;;;;;;;5033276;28;19909;-76
2021/03/12 07:46:00;;;;;;;;;;;;;;;;;;5031986;28;20021;-76
2021/03/12 07:48:26;;;;;;;;;;;;;;;;;;5024400;28;20580;-76
2021/03/12 07:50:52;;;;;;;;;;;;;;;;;;5027154;28;20375;-76
2021/03/12 07:53:18;;;;;;;;;;;;;;;;;;5027050;28;19905;-76
2021/03/12 07:55:45;;;;;;;;;;;;;;;;;;5026258;28;19913;-76
2021/03/12 07:58:14;;;;;;;;;;;;;;;;;;5026329;28;19905;-76
2021/03/12 08:00:40;;;;;;;;;;;;;;;;;;5028255;28;20371;-76
2021/03/12 08:03:06;;;;;;;;;;;;;;;;;;5029650;28;19971;-75
2021/03/12 08:05:32;;;;;;;;;;;;;;;;;;5025600;28;19917;-76
2021/03/12 08:07:58;;;;;;;;;;;;;;;;;;5028903;28;19913;-77
2021/03/12 08:10:24;;;;;;;;;;;;;;;;;;5026102;28;20052;-76
2021/03/12 08:12:50;;;;;;;;;;;;;;;;;;5027617;28;20067;-76
2021/03/12 08:15:16;;;;;;;;;;;;;;;;;;5026644;28;20036;-76
2021/03/12 08:17:42;;;;;;;;;;;;;;;;;;5027294;28;20395;-76
2021/03/12 08:20:08;;;;;;;;;;;;;;;;;;5032315;28;20040;-76
2021/03/12 08:22:34;;;;;;;;;;;;;;;;;;5038343;28;20033;-76
2021/03/12 08:25:00;;;;;;;;;;;;;;;;;;5037006;28;20141;-76
2021/03/12 08:27:26;;;;;;;;;;;;;;;;;;5037000;28;20029;-77
2021/03/12 08:29:52;;;;;;;;;;;;;;;;;;5038470;28;20450;-76
2021/03/12 08:32:17;;;;;;;;;;;;;;;;;;5038695;28;20045;-76
2021/03/12 08:34:43;;;;;;;;;;;;;;;;;;5036749;28;20055;-76
2021/03/12 08:37:32;;;;;;;5.90;0.50;;;;;;;;;;5037034;28;20054;-77
2021/03/12 08:39:58;;;;;;;;;;;;;;;;;;5039326;28;19909;-76
2021/03/12 08:42:24;;;;;;;;;;;;;;;;;;5038284;28;20392;-76
2021/03/12 08:44:50;;;;;;;;;;;;;;;;;;5038106;28;19905;-76
2021/03/12 08:47:16;;;;;;;;;;;;;;;;;;5039795;28;19916;-77
2021/03/12 08:49:41;;;;;;;;;;;8.40;99.90;;;;;;5039841;28;20409;-77
2021/03/12 08:52:15;;;;;;;1.50;0.68;;;17.00;99.90;;;;;;5037867;28;19905;-76
2021/03/12 08:54:42;;;;;;;1.05;0.73;;;18.80;91.10;;;;;;5039097;28;20084;-77
2021/03/12 08:57:21;;;;;;;0.47;0.43;;;18.90;79.80;;;;;;5037601;28;20112;-76
2021/03/12 09:00:03;;;;;;;0.88;0.47;;;16.60;96.60;;;;;;5037754;28;20036;-78
2021/03/12 09:02:29;;;;;;;1.60;0.55;;;14.30;99.90;;;;;;5034948;28;20052;-78
2021/03/12 09:04:54;;;;;;;0.50;0.50;;;12.20;99.90;;;;;;5036159;28;20057;-78
2021/03/12 09:07:20;;;;;;;0.65;0.32;;;11.60;99.90;;;;;;5035261;28;20029;-77
2021/03/12 09:09:45;;;;;;;;;;;11.30;99.90;;;;;;5035453;28;20040;-78
2021/03/12 09:12:11;;;;;;;;;;;11.10;99.90;;;;;;5034676;28;19912;-77
2021/03/12 09:14:40;;;;;;;;;;;11.10;99.90;;;;;;5035559;28;24114;-78
2021/03/12 09:17:05;;;;;;;1.10;0.70;;;10.80;99.90;;;;;;5035346;28;20036;-78
2021/03/12 09:19:32;;;;;;;;;;;10.40;99.90;;;;;;5035978;28;19905;-78
2021/03/12 09:21:57;;;;;;;;;;;9.80;99.90;;;;;;5036454;28;19908;-78
2021/03/12 09:24:23;;;;;;;;;;;9.70;99.90;;;;;;5034630;28;19959;-78
2021/03/12 09:26:48;;;;;;;;;;;9.50;99.90;;;;;;5035433;28;24057;-77
2021/03/12 09:29:14;;;;;;;;;;;9.60;99.90;;;;;;5035975;28;20116;-76
2021/03/12 09:31:40;;;;;;;;;;;9.60;99.90;;;;;;5036182;28;19912;-78
2021/03/12 09:34:06;;;;;;;;;;;10.00;99.90;;;;;;5036249;28;20083;-78
2021/03/12 09:36:36;;;;;;;;;;;10.60;99.90;;;;;;5035050;28;20519;-77
2021/03/12 09:39:04;;;;;;;;;;;11.70;99.90;;;;;;5034776;28;19911;-77
2021/03/12 09:41:29;;;;;;;;;;;13.20;99.90;;;;;;5034455;28;19984;-77
2021/03/12 09:44:03;;;;;;;;;;;14.50;99.90;;;;;;5035761;28;19909;-78
2021/03/12 09:46:29;;;;;;;;;;;16.00;99.60;;;;;;5016276;28;19909;-79
2021/03/12 09:48:55;;;;;;;;;;;17.40;94.00;;;;;;5015661;28;20026;-79
2021/03/12 09:51:22;;;;;;;2.28;0.45;;;16.70;94.20;;;;;;5031784;28;20079;-77
2021/03/12 09:53:48;;;;;;;;;;;15.70;97.60;;;;;;5014111;28;20034;-75
2021/03/12 09:56:14;;;;;;;0.93;0.40;;;17.30;94.90;;;;;;5014930;28;19905;-77
2021/03/12 09:58:40;;;;;;;0.73;0.30;;;18.90;80.50;;;;;;5014908;28;20034;-76
2021/03/12 10:01:17;;;;;;;1.15;0.50;;;18.90;78.90;;;;;;5014961;28;20030;-78
2021/03/12 10:03:44;;;;;;;1.50;0.50;;;20.30;73.60;;;;;;5014782;28;20034;-78
2021/03/12 10:06:11;;;;;;;0.95;0.50;;;21.10;65.10;;;;;;5014467;28;20030;-76
2021/03/12 10:09:08;;;;;;;4.05;1.23;;;22.40;60.20;;;;;;5014210;28;20771;-77
2021/03/12 10:11:52;;;;;;;2.95;0.50;;;20.80;62.10;;;;;;5013446;28;20034;-78
2021/03/12 10:14:34;;;;;;;2.22;0.55;;;20.90;61.20;;;;;;5014091;28;20073;-78
2021/03/12 10:17:20;;;;;;;1.30;1.08;;;20.70;60.40;;;;;;5013309;28;20075;-76
2021/03/12 10:19:51;;;;;;;;;;;19.80;62.70;;;;;;5013036;28;20088;-76
2021/03/12 10:22:27;;;;;;;1.23;0.57;;;17.70;71.80;;;;;;5015286;28;19920;-78
2021/03/12 10:24:54;;;;;;;;;;;15.50;89.00;;;;;;5014696;28;20026;-76
2021/03/12 10:27:21;;;;;;;;;;;12.90;99.90;;;;;;5017383;28;19936;-76
2021/03/12 10:29:46;;;;;;;;;;;12.30;99.90;;;;;;5023966;28;19913;-76
2021/03/12 10:32:13;;;;;;;4.15;1.70;;;12.20;99.90;;;;;;5029259;28;19916;-76
2021/03/12 10:34:43;;;;;;;;;;;12.20;99.90;;;;;;5032858;28;20388;-76
2021/03/12 10:37:12;;;;;;;;;;;12.10;99.90;;;;;;5034277;28;19915;-77
2021/03/12 10:39:41;;;;;;;;;;;11.70;99.90;;;;;;5033264;28;19977;-78
2021/03/12 10:42:07;;;;;;;;;;;11.40;99.90;;;;;;5035003;28;19948;-78
2021/03/12 10:44:49;;;;;;;;;;;11.00;99.90;;;;;;5033552;28;19932;-77
2021/03/12 10:47:14;;;;;;;;;;;11.70;99.90;;;;;;5032745;28;19935;-76
2021/03/12 10:49:40;;;;;;;;;;;12.00;99.90;;;;;;5032819;28;19920;-76
2021/03/12 10:52:05;;;;;;;;;;;11.60;99.90;;;;;;5032615;28;19909;-78
2021/03/12 10:54:31;;;;;;;;;;;11.10;99.90;;;;;;5033666;28;20007;-76
2021/03/12 10:56:56;;;;;;;;;;;10.80;99.90;;;;;;5033786;28;19991;-75
2021/03/12 10:59:22;;;;;;;;;;;10.40;99.90;;;;;;5032582;28;20368;-77
2021/03/12 11:01:49;;;;;;;;;;;10.30;99.90;;;;;;5033483;28;20061;-76
2021/03/12 11:04:16;;;;;;;;;;;10.30;99.90;;;;;;5031788;28;19911;-75
2021/03/12 11:06:42;;;;;;;;;;;10.40;99.90;;;;;;5032318;28;19959;-76
2021/03/12 11:09:13;;;;;;;;;;;10.40;99.90;;;;;;5033144;28;19920;-76
2021/03/12 11:11:41;;;;;;;;;;;11.70;99.90;;;;;;5026869;28;19916;-76
2021/03/12 11:14:07;;;;;;;;;;;14.70;99.90;;;;;;5012335;28;20447;-76
2021/03/12 11:16:33;;;;;;;2.50;0.50;;;16.50;98.30;;;;;;5013409;28;20372;-77
2021/03/12 11:18:59;;;;;;;1.90;0.70;;;17.90;89.90;;;;;;5014625;28;20033;-76
2021/03/12 11:21:25;;;;;;;0.70;0.28;;;17.10;91.00;;;;;;5015704;28;20488;-78
2021/03/12 11:23:53;;;;;;;1.85;0.80;;;16.60;95.40;;;;;;5013355;28;20026;-77
2021/03/12 11:26:20;;;;;;;;;;;16.60;90.70;;;;;;5019630;28;20036;-77
2021/03/12 11:28:46;;;;;;;;;;;16.30;88.10;;;;;;5032671;28;19909;-78
2021/03/12 11:31:13;;;;;;;;;;;16.20;92.90;;;;;;5034304;28;19912;-79
2021/03/12 11:33:38;;;;;;;;;;;16.20;92.90;;;;;;5033428;28;19911;-77
2021/03/12 11:36:06;;;;;;;;;;;16.40;91.30;;;;;;5032260;28;20007;-77
2021/03/12 11:38:32;;;;;;;;;;;16.10;91.10;;;;;;5029662;28;19916;-77
2021/03/12 11:40:58;;;;;;;;;;;16.40;87.70;;;;;;5015606;28;19945;-77
2021/03/12 11:43:24;;;;;;;;;;;16.90;93.30;;;;;;5013843;28;19909;-75
2021/03/12 11:45:49;;;;;;;;;;;16.80;84.10;;;;;;5026132;28;19905;-77
2021/03/12 11:48:14;;;;;;;3.08;0.50;;;17.30;91.80;;;;;;5032126;28;19974;-77
2021/03/12 11:50:40;;;;;;;;;;;17.60;82.00;;;;;;5033592;28;20025;-76
2021/03/12 11:53:05;;;;;;;;;;;16.70;78.10;;;;;;5019573;28;20323;-76
2021/03/12 11:55:32;;;;;;;;;;;16.50;83.00;;;;;;5014585;28;19906;-78
2021/03/12 11:57:57;;;;;;;;;;;16.10;82.50;;;;;;5012568;28;20316;-78
2021/03/12 12:00:23;;;;;;;;;;;15.80;93.70;;;;;;5012323;28;19912;-77
2021/03/12 12:02:49;;;;;;;;;;;15.00;93.50;;;;;;5011032;28;20296;-76
2021/03/12 12:05:15;;;;;;;;;;;14.50;94.70;;;;;;5010937;28;19951;-75
2021/03/12 12:07:41;;;;;;;;;;;15.20;92.80;;;;;;5012580;28;19917;-77
2021/03/12 12:10:07;;;;;;;;;;;15.50;88.00;;;;;;5012643;28;19980;-76
2021/03/12 12:12:33;;;;;;;;;;;14.20;90.90;;;;;;5011109;28;19906;-76
2021/03/12 12:14:58;;;;;;;;;;;12.90;96.50;;;;;;5010983;28;19905;-76
2021/03/12 12:17:24;;;;;;;;;;;12.40;99.10;;;;;;5012815;28;19906;-75
2021/03/12 12:19:49;;;;;;;;;;;13.10;99.90;;;;;;5019406;28;20415;-76
2021/03/12 12:22:16;;;;;;;;;;;13.40;99.40;;;;;;5031925;28;19909;-76
2021/03/12 12:24:42;;;;;;;;;;;12.40;98.10;;;;;;5030316;28;19927;-76
2021/03/12 12:27:08;;;;;;;;;;;12.60;99.90;;;;;;5032177;28;19992;-78
2021/03/12 12:29:34;;;;;;;;;;;13.60;96.80;;;;;;5031224;28;19992;-78
2021/03/12 12:31:59;;;;;;;;;;;13.80;97.50;;;;;;5032207;28;19994;-76
2021/03/12 12:34:25;;;;;;;;;;;14.20;96.20;;;;;;5033254;28;19905;-78
2021/03/12 12:36:51;;;;;;;;;;;15.10;93.70;;;;;;5036271;28;19908;-77
2021/03/12 12:39:17;;;;;;;;;;;15.40;90.50;;;;;;5036789;28;19909;-77
2021/03/12 12:41:42;;;;;;;;;;;14.60;92.00;;;;;;5035670;28;20331;-77
2021/03/12 12:44:08;;;;;;;;;;;13.40;97.60;;;;;;5037103;28;19906;-77
2021/03/12 12:46:35;;;;;;;;;;;13.30;99.90;;;;;;5017837;28;20319;-76
2021/03/12 12:49:00;;;;;;;;;;;13.20;99.90;;;;;;5016997;28;19912;-78
2021/03/12 12:51:26;;;;;;;;;;;12.80;99.90;;;;;;5016964;28;19910;-78
2021/03/12 12:53:51;;;;;;;;;;;13.00;99.90;;;;;;5031647;28;19905;-76
2021/03/12 12:56:17;;;;;;;;;;;13.60;97.80;;;;;;5031756;28;20356;-76
2021/03/12 12:58:42;;;;;;;;;;;13.90;93.30;;;;;;5014442;28;19945;-76
2021/03/12 13:01:08;;;;;;;;;;;13.60;95.90;;;;;;5031117;28;20402;-76
2021/03/12 13:03:33;;;;;;;;;;;13.00;99.10;;;;;;5030647;28;19905;-76
2021/03/12 13:05:59;;;;;;;;;;;12.50;99.90;;;;;;5031227;28;19925;-76
2021/03/12 13:08:24;;;;;;;;;;;12.30;99.90;;;;;;5014240;28;19955;-76
2021/03/12 13:10:50;;;;;;;;;;;12.40;99.90;;;;;;5030879;28;19905;-76
2021/03/12 13:13:16;;;;;;;;;;;12.50;99.90;;;;;;5030747;28;19905;-76
2021/03/12 13:15:42;;;;;;;;;;;13.10;97.90;;;;;;5035918;28;20008;-75
2021/03/12 13:18:08;;;;;;;;;;;13.80;97.10;;;;;;5021888;28;19909;-76
2021/03/12 13:20:36;;;;;;;;;;;13.10;95.30;;;;;;5030057;28;19911;-76
2021/03/12 13:23:02;;;;;;;;;;;12.50;99.00;;;;;;5023825;28;19915;-75
2021/03/12 13:25:27;;;;;;;;;;;12.20;99.90;;;;;;5027889;28;19992;-76
2021/03/12 13:27:53;;;;;;;;;;;12.30;99.90;;;;;;5033981;28;20108;-76
2021/03/12 13:30:19;;;;;;;;;;;12.80;99.90;;;;;;5035179;28;19908;-76
2021/03/12 13:32:45;;;;;;;;;;;13.00;99.30;;;;;;5033621;28;19912;-76
2021/03/12 13:35:12;;;;;;;;;;;12.80;98.20;;;;;;5033436;28;19905;-76
2021/03/12 13:37:41;;;;;;;;;;;12.50;99.00;;;;;;5035072;28;20311;-75
2021/03/12 13:40:08;;;;;;;;;;;12.30;99.40;;;;;;5034817;28;19909;-75
2021/03/12 13:42:33;;;;;;;;;;;12.30;99.90;;;;;;5034781;28;19909;-77
2021/03/12 13:44:59;;;;;;;;;;;12.10;99.90;;;;;;5035739;28;19905;-77
2021/03/12 13:47:24;;;;;;;;;;;12.10;99.90;;;;;;5034092;28;20291;-78
2021/03/12 13:49:50;;;;;;;;;;;12.30;99.90;;;;;;5034682;28;19905;-77
2021/03/12 13:52:15;;;;;;;;;;;12.70;97.70;;;;;;5034579;28;19905;-78
2021/03/12 13:54:40;;;;;;;;;;;12.60;97.70;;;;;;5033572;28;19905;-76
2021/03/12 13:57:06;;;;;;;;;;;12.70;99.40;;;;;;5033597;28;19909;-76
2021/03/12 13:59:32;;;;;;;;;;;13.00;99.10;;;;;;5034314;28;19909;-76
2021/03/12 14:01:57;;;;;;;;;;;13.00;97.50;;;;;;5034582;28;19913;-78
2021/03/12 14:04:23;;;;;;;;;;;13.00;95.80;;;;;;5032851;28;19967;-76
2021/03/12 14:06:48;;;;;;;;;;;12.80;97.50;;;;;;5033170;28;19905;-78
2021/03/12 14:09:16;;;;;;;;;;;12.70;99.90;;;;;;5034622;28;19913;-77